Time;durP1;ratioP1;P1;durP2;ratioP2;P2;SDS_P1;SDS_P2;PMS_P1;PMS_P2;Temp;Humidity;BMP_temperature;BMP_pressure;BME280_temperature;BME280_humidity;BME280_pressure;Samples;Min_cycle;Max_cycle;Signal;HPM_P1;HPM_P2
2020/08/23 00:01:31;;;;;;;1.54;1.30;;;;;;;23.35;71.71;100566.81;;;;-53
2020/08/23 00:04:31;;;;;;;1.31;1.21;;;;;;;23.35;71.69;100566.65;;;;-53
2020/08/23 00:07:31;;;;;;;1.30;1.20;;;;;;;23.34;71.70;100563.28;;;;-53
2020/08/23 00:10:31;;;;;;;1.43;1.29;;;;;;;23.34;71.74;100569.09;;;;-51
2020/08/23 00:13:31;;;;;;;1.23;1.17;;;;;;;23.34;71.71;100574.16;;;;-51
2020/08/23 00:16:31;;;;;;;1.39;1.29;;;;;;;23.34;71.71;100573.11;;;;-51
2020/08/23 00:19:31;;;;;;;1.23;1.13;;;;;;;23.34;71.70;100569.77;;;;-50
2020/08/23 00:22:31;;;;;;;1.35;1.25;;;;;;;23.34;71.71;100570.66;;;;-52
2020/08/23 00:25:31;;;;;;;2.13;1.46;;;;;;;23.34;71.75;100562.23;;;;-52
2020/08/23 00:28:31;;;;;;;1.29;1.20;;;;;;;23.33;71.75;100559.23;;;;-53
2020/08/23 00:31:31;;;;;;;1.25;1.17;;;;;;;23.32;71.72;100554.39;;;;-53
2020/08/23 00:34:31;;;;;;;1.60;1.37;;;;;;;23.33;71.73;100552.45;;;;-53
2020/08/23 00:37:31;;;;;;;1.25;1.15;;;;;;;23.31;71.74;100553.67;;;;-54
2020/08/23 00:40:31;;;;;;;1.21;1.12;;;;;;;23.32;71.72;100553.58;;;;-53
2020/08/23 00:43:31;;;;;;;1.41;1.31;;;;;;;23.31;71.72;100555.14;;;;-53
2020/08/23 00:46:31;;;;;;;1.35;1.25;;;;;;;23.31;71.73;100554.00;;;;-53
2020/08/23 00:49:31;;;;;;;1.27;1.17;;;;;;;23.31;71.71;100554.50;;;;-54
2020/08/23 00:52:31;;;;;;;1.35;1.25;;;;;;;23.31;71.74;100549.83;;;;-53
2020/08/23 00:55:31;;;;;;;1.29;1.20;;;;;;;23.31;71.72;100550.25;;;;-53
2020/08/23 00:58:32;;;;;;;1.11;1.10;;;;;;;23.30;71.73;100557.92;;;;-53
2020/08/23 01:01:31;;;;;;;1.23;1.13;;;;;;;23.30;71.72;100556.45;;;;-53
2020/08/23 01:04:31;;;;;;;1.35;1.25;;;;;;;23.30;71.71;100563.91;;;;-53
2020/08/23 01:07:31;;;;;;;1.40;1.30;;;;;;;23.30;71.72;100558.83;;;;-50
2020/08/23 01:10:31;;;;;;;1.34;1.24;;;;;;;23.29;71.73;100558.59;;;;-53
2020/08/23 01:13:31;;;;;;;1.30;1.20;;;;;;;23.29;71.69;100555.33;;;;-53
2020/08/23 01:16:31;;;;;;;1.33;1.23;;;;;;;23.28;71.69;100555.42;;;;-52
2020/08/23 01:19:31;;;;;;;1.33;1.23;;;;;;;23.29;71.71;100555.83;;;;-51
2020/08/23 01:22:31;;;;;;;1.30;1.20;;;;;;;23.28;71.71;100553.62;;;;-51
2020/08/23 01:25:31;;;;;;;1.40;1.30;;;;;;;23.28;71.67;100547.88;;;;-51
2020/08/23 01:28:31;;;;;;;1.40;1.30;;;;;;;23.28;71.71;100546.41;;;;-51
2020/08/23 01:31:31;;;;;;;1.67;1.36;;;;;;;23.27;71.70;100542.09;;;;-52
2020/08/23 01:34:31;;;;;;;1.27;1.17;;;;;;;23.27;71.67;100543.97;;;;-50
2020/08/23 01:37:31;;;;;;;1.16;1.10;;;;;;;23.28;71.68;100545.52;;;;-51
2020/08/23 01:40:31;;;;;;;1.19;1.09;;;;;;;23.27;71.67;100543.56;;;;-52
2020/08/23 01:43:31;;;;;;;1.29;1.20;;;;;;;23.27;71.68;100536.70;;;;-50
2020/08/23 01:46:31;;;;;;;1.40;1.30;;;;;;;23.27;71.67;100539.08;;;;-51
2020/08/23 01:49:31;;;;;;;1.40;1.30;;;;;;;23.27;71.70;100542.92;;;;-51
2020/08/23 01:52:31;;;;;;;1.13;1.11;;;;;;;23.27;71.70;100535.73;;;;-51
2020/08/23 01:55:31;;;;;;;1.30;1.20;;;;;;;23.26;71.69;100539.47;;;;-51
2020/08/23 01:58:31;;;;;;;1.30;1.20;;;;;;;23.25;71.70;100531.80;;;;-51
2020/08/23 02:01:31;;;;;;;1.30;1.20;;;;;;;23.25;71.70;100531.48;;;;-52
2020/08/23 02:04:31;;;;;;;1.53;1.15;;;;;;;23.25;71.70;100528.30;;;;-50
2020/08/23 02:07:31;;;;;;;1.09;1.07;;;;;;;23.24;71.67;100526.51;;;;-51
2020/08/23 02:10:43;;;;;;;1.25;1.17;;;;;;;23.24;71.65;100525.75;;;;-50
2020/08/23 02:13:31;;;;;;;1.61;1.23;;;;;;;23.24;71.68;100528.78;;;;-52
2020/08/23 02:16:31;;;;;;;1.20;1.10;;;;;;;23.24;71.71;100527.98;;;;-52
2020/08/23 02:19:31;;;;;;;1.38;1.26;;;;;;;23.25;71.71;100526.26;;;;-52
2020/08/23 02:22:31;;;;;;;1.30;1.17;;;;;;;23.24;71.71;100528.13;;;;-51
2020/08/23 02:25:31;;;;;;;1.20;1.10;;;;;;;23.24;71.70;100525.84;;;;-51
2020/08/23 02:28:31;;;;;;;1.38;1.28;;;;;;;23.23;71.73;100517.45;;;;-51
2020/08/23 02:31:31;;;;;;;1.30;1.20;;;;;;;23.23;71.72;100521.61;;;;-50
2020/08/23 02:34:31;;;;;;;1.22;1.19;;;;;;;23.23;71.67;100515.96;;;;-50
2020/08/23 02:37:31;;;;;;;1.31;1.21;;;;;;;23.23;71.67;100509.59;;;;-50
2020/08/23 02:40:31;;;;;;;1.30;1.20;;;;;;;23.23;71.73;100507.47;;;;-50
2020/08/23 02:43:31;;;;;;;1.30;1.20;;;;;;;23.22;71.69;100501.56;;;;-50
2020/08/23 02:46:31;;;;;;;1.17;1.10;;;;;;;23.22;71.66;100501.16;;;;-50
2020/08/23 02:49:31;;;;;;;1.40;1.30;;;;;;;23.22;71.68;100501.18;;;;-51
2020/08/23 02:52:31;;;;;;;1.25;1.15;;;;;;;23.22;71.67;100502.47;;;;-51
2020/08/23 02:55:31;;;;;;;1.10;1.09;;;;;;;23.21;71.67;100501.98;;;;-51
2020/08/23 02:58:31;;;;;;;1.21;1.18;;;;;;;23.20;71.71;100503.56;;;;-50
2020/08/23 03:01:31;;;;;;;1.23;1.13;;;;;;;23.20;71.68;100499.89;;;;-51
2020/08/23 03:04:31;;;;;;;1.30;1.20;;;;;;;23.21;71.71;100502.66;;;;-51
2020/08/23 03:07:31;;;;;;;1.31;1.20;;;;;;;23.20;71.71;100502.58;;;;-52
2020/08/23 03:10:31;;;;;;;1.27;1.19;;;;;;;23.20;71.71;100500.59;;;;-51
2020/08/23 03:13:31;;;;;;;1.10;1.10;;;;;;;23.20;71.71;100495.20;;;;-52
2020/08/23 03:16:31;;;;;;;1.25;1.18;;;;;;;23.19;71.71;100490.14;;;;-50
2020/08/23 03:19:31;;;;;;;1.32;1.22;;;;;;;23.19;71.69;100491.37;;;;-50
2020/08/23 03:22:31;;;;;;;1.28;1.20;;;;;;;23.19;71.70;100489.33;;;;-50
2020/08/23 03:25:31;;;;;;;1.25;1.18;;;;;;;23.18;71.68;100488.05;;;;-50
2020/08/23 03:28:31;;;;;;;1.21;1.13;;;;;;;23.19;71.70;100482.07;;;;-50
2020/08/23 03:31:31;;;;;;;1.21;1.16;;;;;;;23.19;71.74;100481.97;;;;-50
2020/08/23 03:34:31;;;;;;;1.29;1.19;;;;;;;23.19;71.71;100485.17;;;;-49
2020/08/23 03:37:31;;;;;;;1.08;1.08;;;;;;;23.18;71.71;100487.23;;;;-50
2020/08/23 03:40:31;;;;;;;1.11;1.10;;;;;;;23.18;71.75;100486.08;;;;-50
2020/08/23 03:43:31;;;;;;;1.03;1.03;;;;;;;23.18;71.71;100485.42;;;;-50
2020/08/23 03:46:55;;;;;;;1.27;1.19;;;;;;;23.17;71.74;100482.64;;;;-50
2020/08/23 03:49:31;;;;;;;1.13;1.10;;;;;;;23.18;71.74;100483.70;;;;-50
2020/08/23 03:52:31;;;;;;;1.19;1.10;;;;;;;23.18;71.72;100484.68;;;;-50
2020/08/23 03:55:31;;;;;;;1.41;1.23;;;;;;;23.18;71.74;100481.58;;;;-50
2020/08/23 03:58:31;;;;;;;1.19;1.10;;;;;;;23.18;71.75;100480.27;;;;-50
2020/08/23 04:01:31;;;;;;;1.20;1.20;;;;;;;23.17;71.77;100479.95;;;;-50
2020/08/23 04:04:31;;;;;;;1.25;1.16;;;;;;;23.17;71.74;100482.41;;;;-50
2020/08/23 04:07:31;;;;;;;1.30;1.20;;;;;;;23.17;71.75;100481.17;;;;-54
2020/08/23 04:10:31;;;;;;;1.24;1.14;;;;;;;23.16;71.77;100480.38;;;;-53
2020/08/23 04:13:31;;;;;;;1.10;1.10;;;;;;;23.17;71.75;100482.00;;;;-53
2020/08/23 04:16:31;;;;;;;1.31;1.21;;;;;;;23.17;71.78;100482.00;;;;-53
2020/08/23 04:19:31;;;;;;;1.26;1.20;;;;;;;23.17;71.74;100488.14;;;;-54
2020/08/23 04:22:31;;;;;;;1.94;1.10;;;;;;;23.16;71.74;100485.12;;;;-55
2020/08/23 04:25:31;;;;;;;1.25;1.15;;;;;;;23.17;71.77;100484.70;;;;-53
2020/08/23 04:28:31;;;;;;;1.10;1.10;;;;;;;23.16;71.73;100486.19;;;;-53
2020/08/23 04:31:31;;;;;;;1.31;1.21;;;;;;;23.16;71.74;100487.73;;;;-53
2020/08/23 04:34:31;;;;;;;1.23;1.18;;;;;;;23.16;71.74;100487.66;;;;-53
2020/08/23 04:37:31;;;;;;;1.30;1.20;;;;;;;23.16;71.77;100485.12;;;;-53
2020/08/23 04:40:31;;;;;;;1.34;1.24;;;;;;;23.16;71.76;100484.31;;;;-53
2020/08/23 04:43:31;;;;;;;1.25;1.16;;;;;;;23.16;71.75;100481.59;;;;-53
2020/08/23 04:46:31;;;;;;;1.19;1.15;;;;;;;23.16;71.76;100485.84;;;;-53
2020/08/23 04:49:31;;;;;;;1.10;1.10;;;;;;;23.16;71.81;100485.84;;;;-53
2020/08/23 04:52:31;;;;;;;1.07;1.07;;;;;;;23.15;71.78;100487.23;;;;-53
2020/08/23 04:55:31;;;;;;;1.16;1.10;;;;;;;23.15;71.75;100491.48;;;;-53
2020/08/23 04:59:31;;;;;;;1.39;1.29;;;;;;;23.15;71.79;100491.09;;;;-53
2020/08/23 05:02:31;;;;;;;1.10;1.10;;;;;;;23.15;71.79;100494.53;;;;-53
2020/08/23 05:05:31;;;;;;;1.12;1.09;;;;;;;23.15;71.81;100494.77;;;;-53
2020/08/23 05:08:31;;;;;;;1.19;1.10;;;;;;;23.14;71.80;100493.31;;;;-53
2020/08/23 05:11:31;;;;;;;1.07;1.07;;;;;;;23.14;71.81;100499.03;;;;-53
2020/08/23 05:14:31;;;;;;;1.21;1.11;;;;;;;23.14;71.83;100498.47;;;;-53
2020/08/23 05:17:31;;;;;;;1.13;1.11;;;;;;;23.13;71.84;100498.05;;;;-53
2020/08/23 05:20:31;;;;;;;1.13;1.13;;;;;;;23.13;71.86;100498.95;;;;-53
2020/08/23 05:23:31;;;;;;;1.21;1.11;;;;;;;23.13;71.81;100499.03;;;;-53
2020/08/23 05:26:31;;;;;;;1.09;1.08;;;;;;;23.13;71.88;100503.95;;;;-53
2020/08/23 05:29:31;;;;;;;1.76;1.15;;;;;;;23.13;71.13;100515.06;;;;-54
2020/08/23 05:32:31;;;;;;;6.35;1.89;;;;;;;23.02;68.32;100523.56;;;;-54
2020/08/23 05:35:31;;;;;;;3.71;1.91;;;;;;;22.98;68.54;100516.22;;;;-54
2020/08/23 05:38:31;;;;;;;2.86;1.83;;;;;;;22.96;68.39;100526.69;;;;-54
2020/08/23 05:41:31;;;;;;;3.39;1.77;;;;;;;22.90;68.42;100527.38;;;;-54
2020/08/23 05:44:31;;;;;;;6.11;2.19;;;;;;;22.88;67.96;100538.92;;;;-52
2020/08/23 05:47:31;;;;;;;4.23;1.94;;;;;;;22.85;67.95;100536.57;;;;-52
2020/08/23 05:50:31;;;;;;;3.73;2.20;;;;;;;22.88;68.10;100536.55;;;;-51
2020/08/23 05:53:31;;;;;;;4.97;1.91;;;;;;;22.90;68.49;100539.56;;;;-51
2020/08/23 05:56:31;;;;;;;3.97;1.84;;;;;;;22.91;68.62;100536.87;;;;-53
2020/08/23 05:59:31;;;;;;;4.06;2.02;;;;;;;22.93;68.84;100535.28;;;;-52
2020/08/23 06:02:31;;;;;;;2.84;1.81;;;;;;;22.94;68.99;100532.76;;;;-51
2020/08/23 06:05:31;;;;;;;3.11;1.80;;;;;;;22.95;69.11;100536.90;;;;-53
2020/08/23 06:08:31;;;;;;;2.66;1.80;;;;;;;22.96;69.24;100533.79;;;;-51
2020/08/23 06:11:31;;;;;;;3.75;1.91;;;;;;;22.96;69.31;100533.95;;;;-54
2020/08/23 06:14:31;;;;;;;2.71;1.68;;;;;;;22.98;69.46;100531.58;;;;-51
2020/08/23 06:17:31;;;;;;;4.81;1.97;;;;;;;22.97;69.58;100525.63;;;;-53
2020/08/23 06:20:31;;;;;;;2.43;1.69;;;;;;;22.98;69.65;100534.04;;;;-53
2020/08/23 06:23:31;;;;;;;2.95;1.89;;;;;;;22.98;69.71;100532.30;;;;-51
2020/08/23 06:26:31;;;;;;;3.23;1.69;;;;;;;22.99;69.75;100532.70;;;;-51
2020/08/23 06:29:31;;;;;;;3.78;1.87;;;;;;;22.99;69.81;100535.40;;;;-52
2020/08/23 06:32:31;;;;;;;3.04;1.71;;;;;;;22.98;69.87;100533.28;;;;-51
2020/08/23 06:35:31;;;;;;;2.15;1.65;;;;;;;22.99;70.00;100538.58;;;;-52
2020/08/23 06:38:31;;;;;;;2.77;1.50;;;;;;;22.99;69.99;100532.45;;;;-52
2020/08/23 06:41:31;;;;;;;2.01;1.69;;;;;;;23.00;70.04;100535.66;;;;-51
2020/08/23 06:44:31;;;;;;;1.85;1.41;;;;;;;22.99;70.06;100540.81;;;;-51
2020/08/23 06:47:31;;;;;;;1.81;1.62;;;;;;;22.99;70.16;100540.33;;;;-53
2020/08/23 06:50:31;;;;;;;2.57;1.55;;;;;;;22.99;70.18;100544.41;;;;-51
2020/08/23 06:53:31;;;;;;;2.41;1.64;;;;;;;22.99;70.23;100544.25;;;;-51
2020/08/23 06:56:31;;;;;;;1.79;1.50;;;;;;;23.00;70.25;100539.00;;;;-51
2020/08/23 06:59:31;;;;;;;2.24;1.52;;;;;;;22.99;70.31;100534.42;;;;-51
2020/08/23 07:02:31;;;;;;;1.83;1.59;;;;;;;23.00;70.35;100539.42;;;;-52
2020/08/23 07:05:31;;;;;;;1.69;1.53;;;;;;;22.99;70.39;100539.34;;;;-51
2020/08/23 07:08:31;;;;;;;1.60;1.50;;;;;;;23.00;70.39;100539.98;;;;-51
2020/08/23 07:11:31;;;;;;;2.14;1.50;;;;;;;22.99;70.42;100542.91;;;;-57
2020/08/23 07:14:31;;;;;;;1.67;1.55;;;;;;;22.99;70.46;100540.48;;;;-57
2020/08/23 07:17:31;;;;;;;2.03;1.50;;;;;;;22.99;70.46;100541.30;;;;-58
2020/08/23 07:20:31;;;;;;;4.67;1.81;;;;;;;22.99;70.06;100550.20;;;;-58
2020/08/23 07:23:31;;;;;;;2.44;1.79;;;;;;;22.94;66.64;100552.94;;;;-58
2020/08/23 07:26:31;;;;;;;3.18;1.85;;;;;;;22.90;64.75;100557.11;;;;-57
2020/08/23 07:29:31;;;;;;;4.12;1.80;;;;;;;22.88;64.37;100551.98;;;;-58
2020/08/23 07:32:31;;;;;;;3.91;1.90;;;;;;;22.86;64.36;100548.09;;;;-57
2020/08/23 07:35:31;;;;;;;3.34;1.81;;;;;;;22.87;64.35;100553.62;;;;-57
2020/08/23 07:38:31;;;;;;;3.52;1.82;;;;;;;22.86;63.74;100552.56;;;;-57
2020/08/23 07:41:31;;;;;;;4.01;2.02;;;;;;;22.87;63.41;100557.98;;;;-56
2020/08/23 07:44:31;;;;;;;3.01;1.90;;;;;;;22.86;62.94;100558.95;;;;-57
2020/08/23 07:47:31;;;;;;;3.97;1.89;;;;;;;22.85;63.88;100563.70;;;;-58
2020/08/23 07:50:31;;;;;;;3.49;1.81;;;;;;;22.83;64.27;100564.27;;;;-57
2020/08/23 07:53:31;;;;;;;3.39;2.03;;;;;;;22.81;64.05;100569.78;;;;-57
2020/08/23 07:56:31;;;;;;;3.69;1.91;;;;;;;22.81;64.41;100578.03;;;;-57
2020/08/23 07:59:31;;;;;;;4.72;2.03;;;;;;;22.82;64.42;100579.40;;;;-57
2020/08/23 08:02:31;;;;;;;3.50;1.83;;;;;;;22.83;64.87;100574.67;;;;-57
2020/08/23 08:05:31;;;;;;;2.87;1.65;;;;;;;22.83;65.09;100577.28;;;;-57
2020/08/23 08:08:31;;;;;;;2.81;1.80;;;;;;;22.84;65.33;100578.48;;;;-57
2020/08/23 08:11:31;;;;;;;2.61;1.80;;;;;;;22.84;65.60;100584.61;;;;-57
2020/08/23 08:14:31;;;;;;;2.28;1.75;;;;;;;22.85;65.80;100582.42;;;;-57
2020/08/23 08:17:31;;;;;;;2.66;1.59;;;;;;;22.85;65.99;100582.66;;;;-57
2020/08/23 08:20:31;;;;;;;2.47;1.67;;;;;;;22.85;66.14;100581.02;;;;-57
2020/08/23 08:23:31;;;;;;;2.33;1.70;;;;;;;22.87;66.34;100582.39;;;;-57
2020/08/23 08:26:31;;;;;;;2.55;1.61;;;;;;;22.86;66.43;100580.67;;;;-57
2020/08/23 08:29:31;;;;;;;2.35;1.61;;;;;;;22.87;66.54;100583.20;;;;-57
2020/08/23 08:32:31;;;;;;;2.74;1.79;;;;;;;22.87;66.70;100586.82;;;;-58
2020/08/23 08:35:31;;;;;;;2.10;1.50;;;;;;;22.88;66.82;100586.16;;;;-57
2020/08/23 08:38:31;;;;;;;2.31;1.77;;;;;;;22.88;66.90;100586.80;;;;-57
2020/08/23 08:41:31;;;;;;;2.17;1.60;;;;;;;22.88;67.05;100586.72;;;;-57
2020/08/23 08:44:31;;;;;;;2.28;1.61;;;;;;;22.88;67.14;100589.66;;;;-57
2020/08/23 08:47:31;;;;;;;2.99;1.60;;;;;;;22.89;67.27;100592.94;;;;-58
2020/08/23 08:50:31;;;;;;;2.30;1.71;;;;;;;22.89;67.35;100600.36;;;;-57
2020/08/23 08:53:31;;;;;;;4.29;2.06;;;;;;;22.90;67.43;100597.34;;;;-51
2020/08/23 08:56:31;;;;;;;5.42;1.95;;;;;;;22.93;67.55;100597.88;;;;-48
2020/08/23 08:59:31;;;;;;;4.81;1.82;;;;;;;22.95;67.94;100598.36;;;;-53
2020/08/23 09:02:31;;;;;;;3.93;2.15;;;;;;;22.97;67.88;100601.21;;;;-55
2020/08/23 09:05:31;;;;;;;3.20;1.78;;;;;;;22.99;68.06;100597.35;;;;-54
2020/08/23 09:08:31;;;;;;;4.22;1.83;;;;;;;23.00;68.09;100604.88;;;;-54
2020/08/23 09:11:31;;;;;;;3.42;1.87;;;;;;;23.02;68.32;100600.83;;;;-51
2020/08/23 09:14:31;;;;;;;3.68;1.68;;;;;;;23.04;68.35;100602.27;;;;-51
2020/08/23 09:17:31;;;;;;;4.24;1.81;;;;;;;23.05;68.42;100596.77;;;;-49
2020/08/23 09:20:31;;;;;;;3.59;1.83;;;;;;;23.07;68.47;100599.30;;;;-47
2020/08/23 09:23:31;;;;;;;2.15;1.61;;;;;;;23.09;68.47;100592.42;;;;-49
2020/08/23 09:26:31;;;;;;;4.24;1.80;;;;;;;23.10;68.57;100592.42;;;;-51
2020/08/23 09:29:31;;;;;;;3.61;1.90;;;;;;;23.13;68.54;100588.56;;;;-49
2020/08/23 09:32:31;;;;;;;2.59;1.88;;;;;;;23.14;68.56;100588.80;;;;-48
2020/08/23 09:35:31;;;;;;;3.55;1.81;;;;;;;23.15;68.55;100593.30;;;;-58
2020/08/23 09:38:31;;;;;;;3.92;1.78;;;;;;;23.16;68.67;100590.27;;;;-47
2020/08/23 09:41:31;;;;;;;3.26;1.79;;;;;;;23.16;68.70;100591.25;;;;-47
2020/08/23 09:44:31;;;;;;;4.24;1.89;;;;;;;23.17;68.71;100596.78;;;;-57
2020/08/23 09:47:31;;;;;;;3.81;1.79;;;;;;;23.19;68.72;100593.83;;;;-48
2020/08/23 09:50:31;;;;;;;2.59;1.79;;;;;;;23.21;68.57;100598.31;;;;-45
2020/08/23 09:53:31;;;;;;;3.45;1.65;;;;;;;23.21;68.75;100603.63;;;;-47
2020/08/23 09:56:31;;;;;;;3.69;1.70;;;;;;;23.21;68.80;100595.20;;;;-46
2020/08/23 09:59:31;;;;;;;2.43;1.70;;;;;;;23.20;68.78;100602.00;;;;-47
2020/08/23 10:02:31;;;;;;;3.46;1.67;;;;;;;23.20;68.86;100596.52;;;;-46
2020/08/23 10:05:31;;;;;;;3.67;1.75;;;;;;;23.20;68.84;100597.98;;;;-50
2020/08/23 10:08:31;;;;;;;2.50;1.65;;;;;;;23.20;68.81;100599.87;;;;-50
2020/08/23 10:11:31;;;;;;;3.66;1.70;;;;;;;23.22;68.87;100597.41;;;;-50
2020/08/23 10:14:31;;;;;;;2.07;1.79;;;;;;;23.20;68.84;100598.57;;;;-50
2020/08/23 10:17:31;;;;;;;1.90;1.64;;;;;;;23.20;68.87;100606.02;;;;-50
2020/08/23 10:20:31;;;;;;;2.39;1.59;;;;;;;23.20;68.84;100596.45;;;;-50
2020/08/23 10:23:31;;;;;;;2.85;1.71;;;;;;;23.21;68.87;100592.52;;;;-50
2020/08/23 10:26:31;;;;;;;2.51;1.63;;;;;;;23.21;68.91;100592.77;;;;-50
2020/08/23 10:29:31;;;;;;;3.57;1.88;;;;;;;23.22;68.89;100596.09;;;;-50
2020/08/23 10:32:31;;;;;;;3.63;1.59;;;;;;;23.21;68.87;100603.63;;;;-50
2020/08/23 10:35:31;;;;;;;2.18;1.60;;;;;;;23.21;68.91;100597.25;;;;-50
2020/08/23 10:38:31;;;;;;;1.84;1.49;;;;;;;23.21;68.91;100596.27;;;;-59
2020/08/23 10:41:31;;;;;;;3.67;1.75;;;;;;;23.22;68.85;100597.31;;;;-55
2020/08/23 10:44:31;;;;;;;2.35;1.49;;;;;;;23.22;68.87;100598.38;;;;-55
2020/08/23 10:47:31;;;;;;;2.27;1.45;;;;;;;23.22;68.87;100600.84;;;;-57
2020/08/23 10:50:31;;;;;;;3.42;1.53;;;;;;;23.21;68.87;100602.48;;;;-57
2020/08/23 10:53:31;;;;;;;2.22;1.57;;;;;;;23.20;68.88;100604.92;;;;-58
2020/08/23 10:56:31;;;;;;;2.78;1.59;;;;;;;23.20;68.90;100603.31;;;;-56
2020/08/23 10:59:31;;;;;;;2.52;1.66;;;;;;;23.20;68.91;100610.83;;;;-56
2020/08/23 11:02:31;;;;;;;3.15;1.68;;;;;;;23.19;68.93;100606.73;;;;-58
2020/08/23 11:05:31;;;;;;;3.83;1.71;;;;;;;23.19;68.94;100612.89;;;;-55
2020/08/23 11:08:31;;;;;;;2.99;1.60;;;;;;;23.19;68.94;100595.87;;;;-56
2020/08/23 11:11:31;;;;;;;2.10;1.61;;;;;;;23.19;68.94;100598.50;;;;-56
2020/08/23 11:14:31;;;;;;;2.81;1.60;;;;;;;23.18;68.96;100600.63;;;;-55
2020/08/23 11:17:31;;;;;;;2.11;1.38;;;;;;;23.18;68.99;100599.48;;;;-55
2020/08/23 11:20:31;;;;;;;1.59;1.40;;;;;;;23.18;68.96;100592.93;;;;-55
2020/08/23 11:23:31;;;;;;;4.36;1.49;;;;;;;23.17;68.98;100588.92;;;;-56
2020/08/23 11:26:31;;;;;;;2.00;1.60;;;;;;;23.17;69.02;100587.78;;;;-56
2020/08/23 11:29:31;;;;;;;1.89;1.63;;;;;;;23.17;69.05;100589.43;;;;-56
2020/08/23 11:32:31;;;;;;;1.41;1.31;;;;;;;23.16;69.05;100592.55;;;;-56
2020/08/23 11:35:31;;;;;;;2.45;1.40;;;;;;;23.16;69.03;100592.39;;;;-55
2020/08/23 11:38:31;;;;;;;2.81;1.50;;;;;;;23.16;69.05;100588.45;;;;-55
2020/08/23 11:41:31;;;;;;;1.77;1.49;;;;;;;23.16;69.06;100587.89;;;;-56
2020/08/23 11:44:31;;;;;;;2.11;1.52;;;;;;;23.16;69.08;100588.36;;;;-56
2020/08/23 11:47:31;;;;;;;1.92;1.39;;;;;;;23.15;69.07;100584.03;;;;-56
2020/08/23 11:50:31;;;;;;;2.63;1.44;;;;;;;23.15;69.06;100585.84;;;;-56
2020/08/23 11:53:31;;;;;;;1.70;1.40;;;;;;;23.15;69.10;100570.80;;;;-56
2020/08/23 11:56:31;;;;;;;1.54;1.40;;;;;;;23.15;69.07;100585.51;;;;-56
2020/08/23 11:59:31;;;;;;;1.58;1.48;;;;;;;23.15;69.07;100579.56;;;;-56
2020/08/23 12:02:31;;;;;;;1.47;1.37;;;;;;;23.15;69.12;100576.29;;;;-56
2020/08/23 12:05:31;;;;;;;1.75;1.57;;;;;;;23.15;69.08;100575.70;;;;-55
2020/08/23 12:08:31;;;;;;;1.49;1.37;;;;;;;23.15;69.07;100573.51;;;;-56
2020/08/23 12:11:31;;;;;;;2.11;1.40;;;;;;;23.15;69.14;100580.38;;;;-55
2020/08/23 12:14:31;;;;;;;1.58;1.40;;;;;;;23.14;69.11;100573.11;;;;-56
2020/08/23 12:17:31;;;;;;;1.61;1.40;;;;;;;23.14;69.14;100570.34;;;;-53
2020/08/23 12:20:31;;;;;;;1.95;1.55;;;;;;;23.14;69.14;100567.06;;;;-53
2020/08/23 12:23:31;;;;;;;1.86;1.40;;;;;;;23.13;69.14;100567.70;;;;-52
2020/08/23 12:26:31;;;;;;;2.49;1.45;;;;;;;23.14;69.16;100573.50;;;;-52
2020/08/23 12:29:31;;;;;;;1.46;1.36;;;;;;;23.13;69.12;100567.70;;;;-51
2020/08/23 12:32:31;;;;;;;2.92;1.40;;;;;;;23.13;69.17;100564.93;;;;-51
2020/08/23 12:35:31;;;;;;;4.76;1.70;;;;;;;23.14;69.40;100566.40;;;;-47
2020/08/23 12:38:31;;;;;;;5.21;1.50;;;;;;;23.14;69.31;100564.12;;;;-47
2020/08/23 12:41:31;;;;;;;4.60;1.54;;;;;;;23.13;69.25;100567.22;;;;-47
2020/08/23 12:44:31;;;;;;;4.71;1.73;;;;;;;23.14;69.35;100560.84;;;;-45
2020/08/23 12:47:31;;;;;;;3.77;1.62;;;;;;;23.16;69.47;100560.01;;;;-55
2020/08/23 12:50:31;;;;;;;2.15;1.47;;;;;;;23.17;69.48;100554.67;;;;-53
2020/08/23 12:53:31;;;;;;;2.55;1.61;;;;;;;23.18;69.57;100555.58;;;;-57
2020/08/23 12:56:31;;;;;;;2.67;1.59;;;;;;;23.20;69.59;100552.11;;;;-55
2020/08/23 12:59:30;;;;;;;4.87;1.69;;;;;;;23.21;69.74;100555.14;;;;-60
2020/08/23 13:02:31;;;;;;;3.65;1.50;;;;;;;23.23;69.75;100557.00;;;;-52
2020/08/23 13:05:31;;;;;;;2.77;1.50;;;;;;;23.25;69.82;100557.73;;;;-54
2020/08/23 13:08:31;;;;;;;4.21;1.81;;;;;;;23.27;69.84;100563.70;;;;-51
2020/08/23 13:11:31;;;;;;;3.29;1.61;;;;;;;23.28;69.88;100568.67;;;;-50
2020/08/23 13:14:31;;;;;;;2.14;1.50;;;;;;;23.30;69.86;100559.89;;;;-50
2020/08/23 13:17:31;;;;;;;3.39;1.47;;;;;;;23.30;69.90;100569.80;;;;-54
2020/08/23 13:20:30;;;;;;;4.43;1.59;;;;;;;23.33;69.74;100568.48;;;;-60
2020/08/23 13:23:31;;;;;;;3.09;1.67;;;;;;;23.33;69.76;100565.44;;;;-59
2020/08/23 13:26:31;;;;;;;6.37;1.63;;;;;;;23.34;69.73;100566.80;;;;-56
2020/08/23 13:29:31;;;;;;;3.21;1.45;;;;;;;23.36;69.65;100565.64;;;;-54
2020/08/23 13:32:31;;;;;;;5.97;1.61;;;;;;;23.38;69.54;100566.13;;;;-53
2020/08/23 13:35:31;;;;;;;3.20;1.61;;;;;;;23.38;69.50;100568.08;;;;-59
2020/08/23 13:38:31;;;;;;;3.77;1.46;;;;;;;23.39;69.26;100573.98;;;;-56
2020/08/23 13:41:31;;;;;;;3.21;1.57;;;;;;;23.38;69.46;100563.50;;;;-56
2020/08/23 13:44:31;;;;;;;3.77;1.47;;;;;;;23.38;69.46;100561.70;;;;-56
2020/08/23 13:47:31;;;;;;;2.05;1.63;;;;;;;23.37;69.42;100560.43;;;;-50
2020/08/23 13:50:31;;;;;;;3.40;1.83;;;;;;;23.37;69.48;100558.14;;;;-48
2020/08/23 13:53:31;;;;;;;2.28;1.58;;;;;;;23.38;69.50;100549.85;;;;-57
2020/08/23 13:56:31;;;;;;;3.71;1.60;;;;;;;23.38;69.55;100556.95;;;;-48
2020/08/23 13:59:31;;;;;;;3.25;1.60;;;;;;;23.39;69.53;100544.20;;;;-49
2020/08/23 14:02:31;;;;;;;3.01;1.66;;;;;;;23.40;69.43;100543.86;;;;-51
2020/08/23 14:05:31;;;;;;;4.36;1.47;;;;;;;23.41;69.54;100542.31;;;;-51
2020/08/23 14:08:31;;;;;;;3.46;1.50;;;;;;;23.43;69.47;100535.24;;;;-47
2020/08/23 14:11:31;;;;;;;4.07;1.52;;;;;;;23.43;69.51;100540.23;;;;-51
2020/08/23 14:16:31;;;;;;;2.43;1.51;;;;;;;23.45;69.66;100539.15;;;;-50
2020/08/23 14:19:30;;;;;;;2.84;1.41;;;;;;;23.44;69.58;100534.17;;;;-55
2020/08/23 14:22:30;;;;;;;2.44;1.43;;;;;;;23.45;69.65;100533.77;;;;-56
2020/08/23 14:25:30;;;;;;;5.29;1.47;;;;;;;23.46;69.68;100529.33;;;;-56
2020/08/23 14:28:30;;;;;;;2.94;1.61;;;;;;;23.46;69.71;100533.58;;;;-58
2020/08/23 14:31:30;;;;;;;3.87;1.53;;;;;;;23.47;69.63;100533.16;;;;-56
2020/08/23 14:34:30;;;;;;;1.95;1.47;;;;;;;23.49;69.67;100531.19;;;;-53
2020/08/23 14:37:30;;;;;;;2.33;1.40;;;;;;;23.49;69.64;100531.36;;;;-50
2020/08/23 14:40:31;;;;;;;4.91;1.60;;;;;;;23.48;69.52;100534.88;;;;-52
2020/08/23 14:43:30;;;;;;;2.79;1.47;;;;;;;23.48;69.55;100533.09;;;;-61
2020/08/23 14:46:30;;;;;;;2.41;1.38;;;;;;;23.47;69.50;100531.95;;;;-61
2020/08/23 14:49:30;;;;;;;2.18;1.52;;;;;;;23.46;69.56;100527.53;;;;-61
2020/08/23 14:52:30;;;;;;;2.12;1.47;;;;;;;23.45;69.54;100526.73;;;;-61
2020/08/23 14:55:30;;;;;;;2.53;1.58;;;;;;;23.44;69.57;100525.42;;;;-51
2020/08/23 14:58:30;;;;;;;2.69;1.37;;;;;;;23.44;69.52;100521.67;;;;-50
2020/08/23 15:01:30;;;;;;;2.13;1.43;;;;;;;23.42;69.51;100520.77;;;;-51
2020/08/23 15:04:30;;;;;;;1.73;1.47;;;;;;;23.42;69.51;100518.17;;;;-50
2020/08/23 15:07:30;;;;;;;2.61;1.30;;;;;;;23.41;69.50;100518.02;;;;-52
2020/08/23 15:10:30;;;;;;;3.00;1.61;;;;;;;23.41;69.53;100524.64;;;;-55
2020/08/23 15:13:30;;;;;;;3.45;1.57;;;;;;;23.42;69.53;100515.79;;;;-53
2020/08/23 15:16:30;;;;;;;2.62;1.54;;;;;;;23.42;69.57;100510.63;;;;-51
2020/08/23 15:19:30;;;;;;;1.97;1.50;;;;;;;23.44;69.57;100516.44;;;;-48
2020/08/23 15:22:30;;;;;;;2.09;1.42;;;;;;;23.45;69.63;100508.97;;;;-58
2020/08/23 15:25:30;;;;;;;2.59;1.51;;;;;;;23.47;69.68;100509.70;;;;-57
2020/08/23 15:28:30;;;;;;;3.09;1.53;;;;;;;23.47;69.54;100504.80;;;;-57
2020/08/23 15:31:30;;;;;;;2.89;1.42;;;;;;;23.49;69.47;100508.22;;;;-58
2020/08/23 15:34:30;;;;;;;3.89;1.49;;;;;;;23.50;69.59;100509.42;;;;-52
2020/08/23 15:37:30;;;;;;;2.11;1.45;;;;;;;23.51;69.61;100513.58;;;;-50
2020/08/23 15:40:30;;;;;;;2.75;1.50;;;;;;;23.52;69.61;100520.61;;;;-48
2020/08/23 15:43:30;;;;;;;2.45;1.49;;;;;;;23.53;69.58;100512.91;;;;-51
2020/08/23 15:46:30;;;;;;;3.13;1.56;;;;;;;23.52;69.53;100510.45;;;;-56
2020/08/23 15:49:30;;;;;;;3.31;1.57;;;;;;;23.53;69.68;100515.10;;;;-60
2020/08/23 15:52:30;;;;;;;2.85;1.49;;;;;;;23.53;69.68;100514.53;;;;-58
2020/08/23 15:55:30;;;;;;;3.15;1.50;;;;;;;23.53;69.60;100515.69;;;;-58
2020/08/23 15:58:30;;;;;;;2.49;1.51;;;;;;;23.54;69.49;100517.31;;;;-57
2020/08/23 16:01:30;;;;;;;2.33;1.63;;;;;;;23.54;69.46;100516.82;;;;-60
2020/08/23 16:04:30;;;;;;;2.41;1.55;;;;;;;23.56;69.58;100524.74;;;;-57
2020/08/23 16:07:30;;;;;;;2.30;1.45;;;;;;;23.57;69.51;100527.02;;;;-57
2020/08/23 16:10:31;;;;;;;2.03;1.40;;;;;;;23.57;69.54;100517.11;;;;-59
2020/08/23 16:13:31;;;;;;;1.86;1.42;;;;;;;23.58;69.54;100520.55;;;;-53
2020/08/23 16:16:30;;;;;;;3.17;1.36;;;;;;;23.60;69.38;100526.25;;;;-51
2020/08/23 16:19:30;;;;;;;2.09;1.36;;;;;;;23.60;69.51;100520.62;;;;-56
2020/08/23 16:22:30;;;;;;;3.21;1.59;;;;;;;23.60;69.45;100520.77;;;;-56
2020/08/23 16:25:30;;;;;;;2.25;1.47;;;;;;;23.60;69.48;100524.95;;;;-54
2020/08/23 16:28:30;;;;;;;2.14;1.51;;;;;;;23.63;69.47;100526.89;;;;-51
2020/08/23 16:31:30;;;;;;;2.27;1.40;;;;;;;23.62;69.46;100523.70;;;;-52
2020/08/23 16:34:30;;;;;;;1.82;1.41;;;;;;;23.63;69.33;100525.56;;;;-52
2020/08/23 16:37:30;;;;;;;2.89;1.45;;;;;;;23.64;69.29;100527.30;;;;-50
2020/08/23 16:40:30;;;;;;;2.97;1.64;;;;;;;23.64;69.20;100526.14;;;;-56
2020/08/23 16:43:30;;;;;;;1.44;1.27;;;;;;;23.65;69.27;100524.98;;;;-59
2020/08/23 16:46:30;;;;;;;1.85;1.59;;;;;;;23.65;69.34;100520.72;;;;-60